createdAt,value
2018-04-26T00:02:17.674Z,95525
2018-04-26T00:07:46.564Z,95519
2018-04-26T00:13:14.710Z,95539
2018-04-26T00:18:43.602Z,95530
2018-04-26T00:24:11.727Z,95542
2018-04-26T00:29:40.796Z,95538
2018-04-26T00:35:08.935Z,95524
2018-04-26T00:40:37.862Z,95530
2018-04-26T00:46:06.005Z,95524
2018-04-26T00:51:51.937Z,95529
2018-04-26T00:57:22.090Z,95533
2018-04-26T01:02:51.946Z,95534
2018-04-26T01:08:20.086Z,95550
2018-04-26T01:13:49.008Z,95542
2018-04-26T01:19:18.147Z,95549
2018-04-26T01:24:47.062Z,95540
2018-04-26T01:30:15.205Z,95536
2018-04-26T01:35:44.115Z,95535
2018-04-26T01:41:12.274Z,95512
2018-04-26T01:46:41.193Z,95522
2018-04-26T01:52:09.843Z,95520
2018-04-26T01:57:39.130Z,95522
2018-04-26T02:03:07.261Z,95533
2018-04-26T02:08:35.400Z,95526
2018-04-26T02:14:03.591Z,95537
2018-04-26T02:19:32.517Z,95547
2018-04-26T02:25:00.695Z,95546
2018-04-26T02:30:28.879Z,95542
2018-04-26T02:35:57.047Z,95534
2018-04-26T02:41:25.971Z,95555
2018-04-26T02:46:54.872Z,95548
2018-04-26T02:52:23.009Z,95552
2018-04-26T02:57:51.176Z,95550
2018-04-26T03:03:26.298Z,95556
2018-04-26T03:08:54.439Z,95562
2018-04-26T03:14:22.586Z,95571
2018-04-26T03:19:50.724Z,95579
2018-04-26T03:25:18.865Z,95569
2018-04-26T03:30:47.001Z,95580
2018-04-26T03:36:15.915Z,95575
2018-04-26T03:41:44.825Z,95573
2018-04-26T03:47:12.961Z,95589
2018-04-26T03:52:41.105Z,95583
2018-04-26T03:58:09.233Z,95593
2018-04-26T04:03:55.432Z,95599
2018-04-26T04:09:23.556Z,95621
2018-04-26T04:14:51.692Z,95622
2018-04-26T04:20:19.840Z,95608
2018-04-26T04:25:47.994Z,95620
2018-04-26T04:31:16.901Z,95637
2018-04-26T04:36:45.042Z,95643
2018-04-26T04:42:13.951Z,95647
2018-04-26T04:47:42.987Z,95658
2018-04-26T04:53:11.123Z,95681
2018-04-26T04:58:39.266Z,95671
2018-04-26T05:04:08.179Z,95674
2018-04-26T05:09:36.328Z,95657
2018-04-26T05:15:04.517Z,95668
2018-04-26T05:20:32.667Z,95700
2018-04-26T05:26:00.830Z,95730
2018-04-26T05:31:29.025Z,95737
2018-04-26T05:36:57.211Z,95737
2018-04-26T05:42:26.117Z,95753
2018-04-26T05:47:54.261Z,95756
2018-04-26T05:53:22.388Z,95738
2018-04-26T05:58:51.300Z,95758
2018-04-26T06:04:19.444Z,95770
2018-04-26T06:09:48.342Z,95777
2018-04-26T06:15:16.493Z,95775
2018-04-26T06:20:44.637Z,95788
2018-04-26T06:26:13.736Z,95783
2018-04-26T06:31:41.865Z,95786
2018-04-26T06:37:10.013Z,95792
2018-04-26T06:42:38.919Z,95786
2018-04-26T06:48:07.049Z,95783
2018-04-26T06:53:35.219Z,95781
2018-04-26T06:59:03.337Z,95785
2018-04-26T07:04:31.482Z,95794
2018-04-26T07:09:59.678Z,95801
2018-04-26T07:15:27.823Z,95794
2018-04-26T07:20:55.944Z,95806
2018-04-26T07:26:24.072Z,95817
2018-04-26T07:31:52.209Z,95815
2018-04-26T07:37:21.123Z,95827
2018-04-26T07:42:49.251Z,95825
2018-04-26T07:48:19.303Z,95849
2018-04-26T07:53:47.428Z,95853
2018-04-26T07:59:15.563Z,95850
2018-04-26T08:04:43.706Z,95856
2018-04-26T08:10:12.726Z,95852
2018-04-26T08:15:40.863Z,95849
2018-04-26T08:21:08.997Z,95851
2018-04-26T08:26:37.162Z,95846
2018-04-26T08:32:05.311Z,95857
2018-04-26T08:37:34.253Z,95873
2018-04-26T08:43:03.177Z,95863
2018-04-26T08:48:31.392Z,95867
2018-04-26T08:53:59.574Z,95885
2018-04-26T08:59:27.745Z,95886
2018-04-26T09:04:56.653Z,95880
2018-04-26T09:10:24.793Z,95877
2018-04-26T09:15:52.974Z,95869
2018-04-26T09:21:21.065Z,95869
2018-04-26T09:26:49.212Z,95872
2018-04-26T09:32:17.357Z,95871
2018-04-26T09:37:45.502Z,95868
2018-04-26T09:43:14.426Z,95868
2018-04-26T09:48:42.631Z,95870
2018-04-26T09:54:10.716Z,95878
2018-04-26T09:59:38.847Z,95874
2018-04-26T10:05:07.030Z,95878
2018-04-26T10:10:35.923Z,95864
2018-04-26T10:16:04.069Z,95869
2018-04-26T10:21:32.997Z,95866
2018-04-26T10:27:01.153Z,95869
2018-04-26T10:32:29.298Z,95864
2018-04-26T10:37:57.439Z,95877
2018-04-26T10:43:26.872Z,95870
2018-04-26T10:48:55.005Z,95862
2018-04-26T10:54:23.149Z,95853
2018-04-26T10:59:52.059Z,95858
2018-04-26T11:05:20.195Z,95853
2018-04-26T11:10:49.092Z,95866
2018-04-26T11:16:17.280Z,95864
2018-04-26T11:21:45.436Z,95859
2018-04-26T11:27:13.562Z,95852
2018-04-26T11:32:41.717Z,95849
2018-04-26T11:38:10.629Z,95862
2018-04-26T11:43:38.770Z,95859
2018-04-26T11:49:06.904Z,95846
2018-04-26T11:54:35.808Z,95843
2018-04-26T12:00:04.017Z,95847
2018-04-26T12:05:32.209Z,95857
2018-04-26T12:11:00.398Z,95846
2018-04-26T12:16:28.598Z,95837
2018-04-26T12:21:56.745Z,95843
2018-04-26T12:27:24.881Z,95842
2018-04-26T12:32:53.023Z,95838
2018-04-26T12:38:22.117Z,95842
2018-04-26T12:43:50.279Z,95837
2018-04-26T12:49:18.408Z,95829
2018-04-26T12:54:46.544Z,95835
2018-04-26T13:00:14.700Z,95823
2018-04-26T13:05:43.622Z,95831
2018-04-26T13:11:11.751Z,95827
2018-04-26T13:16:40.675Z,95822
2018-04-26T13:22:08.818Z,95826
2018-04-26T13:27:37.729Z,95817
2018-04-26T13:33:05.873Z,95811
2018-04-26T13:38:34.025Z,95813
2018-04-26T13:44:03.075Z,95817
2018-04-26T13:49:31.491Z,95796
2018-04-26T13:54:59.662Z,95816
2018-04-26T14:00:28.620Z,95788
2018-04-26T14:05:56.778Z,95800
2018-04-26T14:11:24.937Z,95811
2018-04-26T14:16:53.078Z,95818
2018-04-26T14:22:21.223Z,95805
2018-04-26T14:27:49.377Z,95803
2018-04-26T14:33:17.513Z,95801
2018-04-26T14:38:45.644Z,95791
2018-04-26T14:44:13.788Z,95785
2018-04-26T14:49:41.993Z,95778
2018-04-26T14:55:10.047Z,95781
2018-04-26T15:00:38.175Z,95779
2018-04-26T15:06:06.327Z,95769
2018-04-26T15:11:34.453Z,95771
2018-04-26T15:17:03.382Z,95767
2018-04-26T15:22:32.299Z,95777
2018-04-26T15:28:01.377Z,95772
2018-04-26T15:33:30.327Z,95771
2018-04-26T15:38:58.506Z,95770
2018-04-26T15:44:26.700Z,95772
2018-04-26T15:49:54.818Z,95771
2018-04-26T15:55:41.577Z,95762
2018-04-26T16:08:03.204Z,95764
2018-04-26T16:13:54.835Z,95768
2018-04-26T16:26:02.774Z,95765
2018-04-26T16:31:55.080Z,95756
2018-04-26T16:37:46.721Z,95755
2018-04-26T16:43:14.875Z,95762
2018-04-26T16:48:42.999Z,95745
2018-04-26T16:54:11.132Z,95752
2018-04-26T16:59:39.255Z,95748
2018-04-26T17:05:07.379Z,95756
2018-04-26T17:10:35.530Z,95754
2018-04-26T17:16:03.668Z,95755
2018-04-26T17:21:32.820Z,95756
2018-04-26T17:27:01.029Z,95761
2018-04-26T17:32:29.953Z,95774
2018-04-26T17:37:58.170Z,95769
2018-04-26T17:43:26.304Z,95770
2018-04-26T17:48:57.727Z,95773
2018-04-26T17:54:25.863Z,95776
2018-04-26T17:59:54.008Z,95784
2018-04-26T18:05:22.153Z,95782
2018-04-26T18:10:51.068Z,95790
2018-04-26T18:16:19.193Z,95789
2018-04-26T18:21:47.355Z,95790
2018-04-26T18:27:15.501Z,95783
2018-04-26T18:32:43.637Z,95800
2018-04-26T18:38:11.780Z,95800
2018-04-26T18:43:39.904Z,95820
2018-04-26T18:49:08.814Z,95834
2018-04-26T18:54:36.954Z,95837
2018-04-26T19:00:05.096Z,95842
2018-04-26T19:05:35.223Z,95843
2018-04-26T19:11:03.484Z,95851
2018-04-26T19:16:31.736Z,95854
2018-04-26T19:21:59.993Z,95867
2018-04-26T19:27:29.091Z,95875
2018-04-26T19:32:58.191Z,95874
2018-04-26T19:38:27.156Z,95871
2018-04-26T19:44:00.208Z,95864
2018-04-26T19:49:28.412Z,95871
2018-04-26T19:54:56.591Z,95873
2018-04-26T20:00:24.708Z,95868
2018-04-26T20:05:54.813Z,95867
2018-04-26T20:11:22.980Z,95870
2018-04-26T20:16:52.048Z,95872
2018-04-26T20:22:20.220Z,95871
2018-04-26T20:27:48.344Z,95873
2018-04-26T20:33:16.544Z,95867
2018-04-26T20:38:44.721Z,95868
2018-04-26T20:44:12.945Z,95866
2018-04-26T20:49:42.091Z,95866
2018-04-26T20:55:10.990Z,95877
2018-04-26T21:00:39.126Z,95864
2018-04-26T21:06:07.267Z,95865
2018-04-26T21:11:35.495Z,95866
2018-04-26T21:17:04.406Z,95867
2018-04-26T21:22:34.574Z,95865
2018-04-26T21:28:03.613Z,95866
2018-04-26T21:33:31.835Z,95866
2018-04-26T21:39:00.166Z,95863
2018-04-26T21:44:28.536Z,95870
2018-04-26T21:50:02.250Z,95867
2018-04-26T21:55:36.702Z,95877
2018-04-26T22:01:10.650Z,95878
2018-04-26T22:06:38.797Z,95875
2018-04-26T22:12:07.696Z,95877
2018-04-26T22:17:35.849Z,95870
2018-04-26T22:23:04.146Z,95877
2018-04-26T22:28:32.354Z,95859
2018-04-26T22:34:00.480Z,95853
2018-04-26T22:39:28.637Z,95865
2018-04-26T22:44:58.223Z,95849
2018-04-26T22:50:26.353Z,95844
2018-04-26T22:55:54.486Z,95845
2018-04-26T23:01:22.618Z,95837
2018-04-26T23:06:50.754Z,95824
2018-04-26T23:12:19.038Z,95825
2018-04-26T23:17:47.202Z,95836
2018-04-26T23:23:15.327Z,95833
2018-04-26T23:28:44.231Z,95837
2018-04-26T23:34:12.344Z,95833
2018-04-26T23:39:40.494Z,95823
2018-04-26T23:45:08.821Z,95822
2018-04-26T23:50:37.721Z,95811
2018-04-26T23:56:05.889Z,95807
